createdAt,value
2022-10-26T00:00:38.776Z,12.84
2022-10-26T00:01:41.035Z,12.80
2022-10-26T00:02:43.367Z,12.77
2022-10-26T00:03:46.733Z,12.88
2022-10-26T00:04:48.922Z,12.79
2022-10-26T00:05:51.147Z,12.80
2022-10-26T00:06:53.251Z,12.82
2022-10-26T00:07:55.400Z,12.83
2022-10-26T00:08:58.216Z,12.87
2022-10-26T00:10:00.351Z,12.90
2022-10-26T00:11:02.937Z,12.94
2022-10-26T00:12:05.383Z,13.01
2022-10-26T00:13:11.092Z,13.24
2022-10-26T00:14:13.227Z,13.03
2022-10-26T00:15:15.411Z,12.99
2022-10-26T00:16:26.978Z,13.36
2022-10-26T00:17:29.121Z,13.04
2022-10-26T00:18:31.275Z,13.04
2022-10-26T00:19:34.220Z,13.15
2022-10-26T00:20:36.452Z,13.00
2022-10-26T00:21:38.550Z,12.98
2022-10-26T00:22:41.143Z,13.08
2022-10-26T00:23:43.354Z,13.15
2022-10-26T00:24:45.572Z,13.16
2022-10-26T00:25:55.492Z,13.42
2022-10-26T00:26:57.636Z,13.12
2022-10-26T00:27:59.792Z,13.05
2022-10-26T00:29:02.034Z,13.03
2022-10-26T00:30:05.818Z,13.15
2022-10-26T00:31:15.879Z,13.33
2022-10-26T00:32:18.046Z,13.12
2022-10-26T00:33:20.289Z,13.13
2022-10-26T00:34:22.474Z,13.21
2022-10-26T00:35:44.717Z,13.30
2022-10-26T00:36:46.842Z,13.31
2022-10-26T00:37:49.193Z,13.29
2022-10-26T00:38:53.327Z,13.40
2022-10-26T00:39:55.488Z,13.24
2022-10-26T00:42:04.726Z,13.21
2022-10-26T00:43:33.621Z,13.53
2022-10-26T00:44:57.954Z,13.61
2022-10-26T00:46:01.753Z,13.33
2022-10-26T00:47:05.266Z,13.40
2022-10-26T00:48:14.166Z,13.50
2022-10-26T00:49:20.872Z,13.50
2022-10-26T00:50:28.704Z,13.48
2022-10-26T00:51:40.547Z,13.49
2022-10-26T00:52:42.976Z,13.20
2022-10-26T00:53:45.669Z,13.14
2022-10-26T00:54:48.010Z,13.11
2022-10-26T00:55:52.486Z,13.24
2022-10-26T00:56:55.418Z,13.16
2022-10-26T00:57:57.994Z,13.09
2022-10-26T00:59:05.527Z,13.30
2022-10-26T01:00:08.861Z,13.20
2022-10-26T01:01:11.551Z,13.12
2022-10-26T01:02:13.798Z,13.20
2022-10-26T01:03:17.012Z,13.33
2022-10-26T01:04:20.025Z,13.24
2022-10-26T01:05:22.265Z,13.19
2022-10-26T01:06:24.438Z,13.20
2022-10-26T01:07:27.591Z,13.30
2022-10-26T01:08:30.398Z,13.15
2022-10-26T01:09:33.153Z,13.18
2022-10-26T01:10:37.871Z,13.21
2022-10-26T01:11:40.048Z,13.08
2022-10-26T01:12:42.500Z,13.05
2022-10-26T01:13:46.359Z,13.14
2022-10-26T01:14:48.885Z,12.92
2022-10-26T01:16:22.981Z,13.22
2022-10-26T01:17:41.733Z,13.16
2022-10-26T01:18:59.076Z,13.08
2022-10-26T01:20:35.295Z,13.12
2022-10-26T01:21:52.705Z,13.05
2022-10-26T01:23:19.785Z,12.91
2022-10-26T01:24:57.243Z,12.96
2022-10-26T01:25:59.298Z,12.56
2022-10-26T01:27:49.898Z,12.96
2022-10-26T01:29:08.973Z,12.87
2022-10-26T01:30:22.404Z,12.84
2022-10-26T01:31:39.311Z,12.85
2022-10-26T01:32:59.505Z,12.89
2022-10-26T01:34:06.435Z,12.67
2022-10-26T01:35:28.613Z,12.80
2022-10-26T01:36:39.173Z,12.65
2022-10-26T01:37:48.249Z,12.65
2022-10-26T01:39:15.058Z,12.67
2022-10-26T01:40:28.094Z,12.61
2022-10-26T01:41:38.559Z,12.65
2022-10-26T01:42:44.481Z,12.56
2022-10-26T01:43:55.158Z,12.63
2022-10-26T01:45:03.904Z,12.61
2022-10-26T01:46:08.016Z,12.54
2022-10-26T01:47:14.030Z,12.59
2022-10-26T01:48:19.096Z,12.57
2022-10-26T01:49:28.967Z,12.67
2022-10-26T01:50:32.421Z,12.59
2022-10-26T01:51:35.561Z,12.55
2022-10-26T01:52:37.876Z,12.46
2022-10-26T01:53:47.190Z,12.83
2022-10-26T01:54:49.580Z,12.57
2022-10-26T01:55:53.733Z,12.73
2022-10-26T01:57:01.207Z,12.74
2022-10-26T01:58:15.265Z,12.82
2022-10-26T01:59:26.741Z,12.75
2022-10-26T02:00:31.468Z,12.70
2022-10-26T02:01:48.835Z,12.78
2022-10-26T02:03:23.670Z,12.84
2022-10-26T02:05:02.067Z,12.85
2022-10-26T02:06:29.575Z,12.80
2022-10-26T02:08:07.783Z,12.91
2022-10-26T02:09:25.094Z,12.97
2022-10-26T02:10:32.775Z,12.93
2022-10-26T02:11:51.239Z,13.00
2022-10-26T02:13:06.924Z,13.06
2022-10-26T02:14:22.430Z,13.04
2022-10-26T02:15:42.188Z,13.21
2022-10-26T02:17:01.995Z,13.24
2022-10-26T02:18:18.446Z,13.25
2022-10-26T02:19:52.808Z,13.29
2022-10-26T02:21:01.291Z,13.16
2022-10-26T02:22:15.743Z,13.19
2022-10-26T02:23:19.927Z,13.11
2022-10-26T02:24:23.362Z,13.17
2022-10-26T02:25:32.024Z,13.29
2022-10-26T02:26:36.142Z,13.13
2022-10-26T02:27:44.489Z,13.34
2022-10-26T02:28:50.746Z,13.38
2022-10-26T02:29:55.753Z,13.41
2022-10-26T02:31:00.928Z,13.34
2022-10-26T02:32:03.975Z,13.27
2022-10-26T02:33:08.320Z,13.38
2022-10-26T02:34:14.071Z,13.45
2022-10-26T02:35:20.758Z,13.38
2022-10-26T02:36:28.069Z,13.48
2022-10-26T02:37:32.714Z,13.32
2022-10-26T02:38:37.602Z,13.39
2022-10-26T02:39:41.797Z,13.43
2022-10-26T02:40:46.689Z,13.38
2022-10-26T02:41:49.835Z,13.38
2022-10-26T02:42:54.050Z,13.54
2022-10-26T02:44:17.523Z,13.87
2022-10-26T02:45:25.930Z,13.69
2022-10-26T02:46:28.832Z,13.48
2022-10-26T02:47:31.322Z,13.44
2022-10-26T02:48:33.608Z,13.43
2022-10-26T02:49:36.053Z,13.46
2022-10-26T02:50:59.171Z,13.86
2022-10-26T02:52:09.324Z,13.70
2022-10-26T02:53:42.773Z,13.82
2022-10-26T02:54:56.973Z,13.80
2022-10-26T02:56:03.838Z,13.59
2022-10-26T02:57:17.519Z,13.75
2022-10-26T02:58:29.618Z,13.75
2022-10-26T02:59:37.602Z,13.71
2022-10-26T03:00:40.239Z,13.49
2022-10-26T03:01:44.186Z,13.49
2022-10-26T03:02:53.302Z,13.75
2022-10-26T03:03:59.793Z,13.75
2022-10-26T03:05:15.714Z,13.79
2022-10-26T03:06:23.124Z,13.67
2022-10-26T03:07:25.457Z,13.34
2022-10-26T03:09:31.205Z,13.41
2022-10-26T03:10:35.556Z,13.53
2022-10-26T03:11:37.660Z,13.44
2022-10-26T03:12:39.768Z,13.42
2022-10-26T03:13:41.878Z,13.41
2022-10-26T03:14:44.194Z,13.36
2022-10-26T03:15:46.378Z,13.35
2022-10-26T03:16:48.649Z,13.41
2022-10-26T03:17:51.077Z,13.41
2022-10-26T03:18:53.472Z,13.43
2022-10-26T03:19:56.183Z,13.46
2022-10-26T03:20:58.296Z,13.43
2022-10-26T03:22:00.416Z,13.39
2022-10-26T03:23:02.625Z,13.44
2022-10-26T03:24:04.981Z,13.42
2022-10-26T03:26:14.655Z,13.45
2022-10-26T03:27:16.828Z,13.51
2022-10-26T03:28:18.970Z,13.49
2022-10-26T03:29:21.188Z,13.51
2022-10-26T03:30:23.339Z,13.51
2022-10-26T03:31:25.446Z,13.56
2022-10-26T03:32:27.663Z,13.58
2022-10-26T03:33:29.851Z,13.56
2022-10-26T03:34:32.184Z,13.55
2022-10-26T03:35:34.517Z,13.49
2022-10-26T03:36:36.664Z,13.47
2022-10-26T03:37:38.757Z,13.50
2022-10-26T03:38:40.899Z,13.52
2022-10-26T03:39:43.070Z,13.52
2022-10-26T03:40:48.465Z,13.53
2022-10-26T03:41:50.730Z,13.49
2022-10-26T03:42:53.085Z,13.45
2022-10-26T03:43:55.288Z,13.46
2022-10-26T03:44:57.460Z,13.40
2022-10-26T03:45:59.656Z,13.35
2022-10-26T03:47:01.825Z,13.39
2022-10-26T03:48:04.312Z,13.40
2022-10-26T03:49:06.483Z,13.40
2022-10-26T03:50:09.153Z,13.45
2022-10-26T03:51:11.291Z,13.44
2022-10-26T03:52:13.386Z,13.40
2022-10-26T03:53:15.680Z,13.40
2022-10-26T03:54:18.475Z,13.31
2022-10-26T03:55:20.719Z,13.31
2022-10-26T03:56:23.068Z,13.25
2022-10-26T03:57:25.231Z,13.21
2022-10-26T03:58:27.417Z,13.16
2022-10-26T03:59:29.623Z,13.10
2022-10-26T04:00:31.817Z,13.19
2022-10-26T04:01:34.064Z,13.20
2022-10-26T04:02:36.897Z,13.36
2022-10-26T04:03:39.106Z,13.24
2022-10-26T04:04:41.315Z,13.31
2022-10-26T04:05:43.487Z,13.42
2022-10-26T04:07:56.631Z,13.73
2022-10-26T04:09:02.379Z,13.44
2022-10-26T04:10:05.979Z,13.56
2022-10-26T04:11:08.205Z,13.40
2022-10-26T04:12:10.348Z,13.40
2022-10-26T04:13:12.526Z,13.38
2022-10-26T04:14:14.703Z,13.36
2022-10-26T04:15:18.838Z,13.53
2022-10-26T04:16:21.502Z,13.37
2022-10-26T04:17:24.790Z,13.43
2022-10-26T04:18:27.026Z,13.41
2022-10-26T04:19:29.180Z,13.39
2022-10-26T04:20:33.149Z,13.46
2022-10-26T04:21:35.505Z,13.34
2022-10-26T04:22:38.175Z,13.41
2022-10-26T04:23:40.306Z,13.31
2022-10-26T04:24:42.462Z,13.30
2022-10-26T04:25:45.087Z,13.38
2022-10-26T04:26:47.227Z,13.37
2022-10-26T04:27:49.543Z,13.33
2022-10-26T04:28:51.867Z,13.39
2022-10-26T04:29:53.979Z,13.29
2022-10-26T04:30:56.177Z,13.24
2022-10-26T04:31:58.272Z,13.26
2022-10-26T04:33:00.779Z,13.26
2022-10-26T04:34:02.985Z,13.17
2022-10-26T04:35:05.456Z,13.25
2022-10-26T04:36:08.127Z,13.25
2022-10-26T04:37:10.392Z,13.27
2022-10-26T04:38:12.524Z,13.34
2022-10-26T04:39:14.742Z,13.36
2022-10-26T04:40:17.017Z,13.32
2022-10-26T04:41:19.331Z,13.35
2022-10-26T04:42:21.609Z,13.42
2022-10-26T04:43:24.044Z,13.46
2022-10-26T04:44:26.233Z,13.48
2022-10-26T04:45:30.694Z,13.49
2022-10-26T04:46:32.960Z,13.53
2022-10-26T04:47:35.083Z,13.50
2022-10-26T04:48:37.195Z,13.44
2022-10-26T04:49:39.334Z,13.44
2022-10-26T04:50:41.503Z,13.37
2022-10-26T04:51:44.402Z,13.39
2022-10-26T04:52:51.153Z,13.64
2022-10-26T04:53:54.940Z,13.53
2022-10-26T04:54:57.031Z,13.36
2022-10-26T04:56:00.782Z,13.54
2022-10-26T04:57:03.033Z,13.50
2022-10-26T04:58:06.107Z,13.63
2022-10-26T04:59:08.249Z,13.55
2022-10-26T05:00:11.172Z,13.62
2022-10-26T05:01:13.367Z,13.49
2022-10-26T05:02:15.791Z,13.51
2022-10-26T05:03:17.978Z,13.52
2022-10-26T05:04:20.055Z,13.50
2022-10-26T05:05:22.166Z,13.44
2022-10-26T05:06:24.271Z,13.41
2022-10-26T05:07:26.409Z,13.44
2022-10-26T05:08:31.570Z,13.43
2022-10-26T05:09:33.678Z,13.41
2022-10-26T05:10:35.855Z,13.40
2022-10-26T05:11:37.959Z,13.40
2022-10-26T05:12:40.061Z,13.36
2022-10-26T05:13:42.171Z,13.38
2022-10-26T05:14:44.284Z,13.34
2022-10-26T05:15:46.499Z,13.35
2022-10-26T05:16:51.078Z,13.52
2022-10-26T05:18:02.805Z,13.69
2022-10-26T05:19:04.969Z,13.37
2022-10-26T05:20:10.886Z,13.45
2022-10-26T05:21:19.201Z,13.38
2022-10-26T05:22:22.671Z,13.63
2022-10-26T05:23:24.995Z,13.49
2022-10-26T05:24:27.175Z,13.48
2022-10-26T05:25:31.525Z,13.60
2022-10-26T05:26:33.686Z,13.49
2022-10-26T05:27:35.812Z,13.51
2022-10-26T05:28:37.954Z,13.49
2022-10-26T05:29:40.121Z,13.49
2022-10-26T05:30:43.927Z,13.58
2022-10-26T05:31:46.113Z,13.43
2022-10-26T05:32:54.672Z,13.75
2022-10-26T05:33:56.848Z,13.43
2022-10-26T05:34:58.933Z,13.42
2022-10-26T05:36:01.030Z,13.48
2022-10-26T05:37:03.137Z,13.43
2022-10-26T05:38:16.886Z,13.73
2022-10-26T05:39:19.120Z,13.37
2022-10-26T05:40:21.457Z,13.39
2022-10-26T05:41:23.573Z,13.40
2022-10-26T05:42:25.655Z,13.38
2022-10-26T05:43:27.978Z,13.37
2022-10-26T05:44:30.103Z,13.39
2022-10-26T05:45:32.227Z,13.37
2022-10-26T05:46:34.369Z,13.37
2022-10-26T05:47:43.338Z,13.63
2022-10-26T05:48:45.507Z,13.32
2022-10-26T05:49:48.869Z,13.33
2022-10-26T05:50:51.233Z,13.33
2022-10-26T05:51:53.346Z,13.27
2022-10-26T05:52:55.879Z,13.23
2022-10-26T05:53:58.008Z,13.24
2022-10-26T05:55:00.179Z,13.24
2022-10-26T05:56:04.938Z,13.24
2022-10-26T05:57:13.718Z,13.51
2022-10-26T05:58:16.574Z,13.22
2022-10-26T05:59:18.954Z,13.19
2022-10-26T06:00:23.879Z,13.35
2022-10-26T06:01:39.815Z,13.47
2022-10-26T06:03:25.908Z,13.56
2022-10-26T06:04:43.193Z,13.53
2022-10-26T06:05:53.308Z,13.45
2022-10-26T06:06:56.619Z,13.23
2022-10-26T06:07:58.957Z,13.13
2022-10-26T06:09:01.357Z,13.09
2022-10-26T06:10:04.479Z,13.18
2022-10-26T06:11:07.810Z,13.14
2022-10-26T06:12:12.703Z,13.22
2022-10-26T06:13:17.296Z,13.20
2022-10-26T06:14:19.876Z,13.15
2022-10-26T06:15:22.578Z,13.16
2022-10-26T06:16:30.483Z,13.12
2022-10-26T06:17:38.660Z,13.34
2022-10-26T06:18:43.481Z,13.39
2022-10-26T06:20:22.182Z,13.43
2022-10-26T06:21:33.116Z,13.02
2022-10-26T06:22:44.339Z,13.42
2022-10-26T06:23:53.471Z,13.45
2022-10-26T06:25:08.441Z,13.36
2022-10-26T06:26:27.571Z,13.33
2022-10-26T06:27:56.952Z,13.34
2022-10-26T06:29:17.960Z,13.49
2022-10-26T06:30:23.227Z,13.47
2022-10-26T06:31:25.333Z,13.13
2022-10-26T06:32:28.154Z,13.21
2022-10-26T06:33:31.013Z,13.15
2022-10-26T06:34:36.167Z,13.40
2022-10-26T06:35:40.878Z,13.52
2022-10-26T06:36:43.449Z,13.29
2022-10-26T06:37:46.544Z,13.46
2022-10-26T06:38:54.162Z,13.81
2022-10-26T06:39:58.515Z,13.91
2022-10-26T06:41:01.773Z,14.17
2022-10-26T06:42:04.305Z,14.27
2022-10-26T06:43:16.823Z,14.74
2022-10-26T06:44:23.712Z,14.95
2022-10-26T06:45:26.226Z,14.96
2022-10-26T06:46:37.683Z,15.34
2022-10-26T06:48:02.598Z,15.56
2022-10-26T06:49:19.927Z,15.30
2022-10-26T06:50:41.056Z,15.57
2022-10-26T06:52:07.657Z,15.44
2022-10-26T06:53:17.951Z,15.22
2022-10-26T06:54:43.342Z,15.20
2022-10-26T06:55:47.520Z,14.99
2022-10-26T06:56:51.294Z,14.81
2022-10-26T06:57:53.578Z,14.67
2022-10-26T06:59:03.451Z,14.80
2022-10-26T07:00:18.919Z,14.97
2022-10-26T07:01:21.206Z,14.67
2022-10-26T07:02:24.050Z,14.69
2022-10-26T07:03:26.298Z,14.52
2022-10-26T07:04:28.475Z,14.63
2022-10-26T07:05:30.602Z,14.63
2022-10-26T07:06:34.426Z,14.61
2022-10-26T07:07:44.868Z,14.86
2022-10-26T07:08:47.001Z,14.63
2022-10-26T07:09:49.550Z,14.61
2022-10-26T07:10:51.787Z,14.63
2022-10-26T07:11:53.930Z,14.61
2022-10-26T07:12:56.037Z,14.65
2022-10-26T07:13:58.271Z,14.69
2022-10-26T07:15:00.874Z,14.66
2022-10-26T07:16:03.344Z,14.70
2022-10-26T07:17:05.938Z,14.64
2022-10-26T07:18:08.680Z,14.62
2022-10-26T07:19:10.847Z,14.62
2022-10-26T07:20:13.543Z,14.62
2022-10-26T07:21:15.677Z,14.58
2022-10-26T07:22:18.096Z,14.66
2022-10-26T07:23:20.374Z,14.69
2022-10-26T07:24:23.748Z,14.76
2022-10-26T07:25:26.461Z,14.62
2022-10-26T07:26:28.651Z,14.73
2022-10-26T07:27:30.773Z,14.69
2022-10-26T07:28:32.886Z,14.49
2022-10-26T07:29:35.450Z,14.57
2022-10-26T07:30:39.210Z,14.74
2022-10-26T07:31:41.460Z,14.78
2022-10-26T07:32:43.769Z,14.86
2022-10-26T07:33:46.184Z,14.85
2022-10-26T07:34:48.264Z,14.78
2022-10-26T07:35:50.380Z,14.95
2022-10-26T07:36:52.806Z,15.01
2022-10-26T07:37:59.280Z,15.32
2022-10-26T07:39:01.487Z,15.06
2022-10-26T07:40:06.620Z,15.16
2022-10-26T07:41:09.094Z,15.20
2022-10-26T07:42:11.283Z,15.21
2022-10-26T07:43:13.401Z,15.33
2022-10-26T07:44:15.591Z,15.37
2022-10-26T07:45:17.744Z,15.35
2022-10-26T07:46:19.882Z,15.39
2022-10-26T07:47:22.119Z,15.55
2022-10-26T07:48:24.316Z,15.59
2022-10-26T07:49:27.889Z,15.67
2022-10-26T07:50:30.283Z,15.80
2022-10-26T07:51:32.422Z,15.78
2022-10-26T07:52:36.968Z,15.93
2022-10-26T07:53:39.236Z,16.12
2022-10-26T07:54:41.418Z,16.17
2022-10-26T07:55:43.544Z,16.28
2022-10-26T07:56:48.639Z,16.50
2022-10-26T07:57:54.426Z,16.40
2022-10-26T07:58:58.108Z,16.45
2022-10-26T08:00:00.226Z,16.92
2022-10-26T08:01:07.625Z,17.48
2022-10-26T08:02:10.265Z,17.60
2022-10-26T08:03:12.397Z,17.81
2022-10-26T08:04:15.122Z,18.33
2022-10-26T08:05:17.737Z,18.93
2022-10-26T08:06:23.532Z,19.68
2022-10-26T08:07:26.137Z,20.18
2022-10-26T08:08:28.353Z,20.88
2022-10-26T08:09:30.572Z,21.64
2022-10-26T08:10:32.728Z,22.24
2022-10-26T08:11:37.028Z,22.77
2022-10-26T08:12:39.882Z,23.16
2022-10-26T08:13:42.489Z,23.16
2022-10-26T08:14:45.104Z,22.68
2022-10-26T08:15:47.843Z,22.58
2022-10-26T08:16:52.447Z,22.59
2022-10-26T08:17:54.818Z,21.73
2022-10-26T08:18:57.154Z,21.59
2022-10-26T08:19:59.320Z,21.27
2022-10-26T08:21:11.212Z,21.41
2022-10-26T08:23:16.917Z,21.60
2022-10-26T08:24:19.031Z,21.53
2022-10-26T08:25:21.599Z,21.76
2022-10-26T08:26:23.951Z,22.12
2022-10-26T08:27:26.196Z,22.72
2022-10-26T08:28:29.516Z,23.17
2022-10-26T08:29:31.670Z,22.86
2022-10-26T08:31:37.146Z,22.29
2022-10-26T08:32:39.317Z,22.42
2022-10-26T08:33:44.906Z,22.25
2022-10-26T08:34:47.507Z,21.59
2022-10-26T08:35:54.800Z,21.51
2022-10-26T08:36:56.936Z,21.21
2022-10-26T08:37:59.107Z,21.08
2022-10-26T08:39:01.259Z,20.99
2022-10-26T08:40:04.915Z,20.76
2022-10-26T08:41:09.180Z,20.77
2022-10-26T08:42:18.590Z,20.33
2022-10-26T08:44:02.450Z,20.37
2022-10-26T08:45:17.726Z,20.30
2022-10-26T08:46:25.822Z,20.30
2022-10-26T08:47:39.389Z,20.26
2022-10-26T08:48:50.853Z,20.12
2022-10-26T08:50:01.667Z,20.03
2022-10-26T08:51:07.847Z,20.21
2022-10-26T08:52:14.575Z,20.19
2022-10-26T08:53:38.377Z,20.51
2022-10-26T08:54:54.874Z,20.55
2022-10-26T08:56:01.806Z,20.53
2022-10-26T08:57:25.916Z,20.75
2022-10-26T08:58:38.159Z,20.84
2022-10-26T08:59:50.922Z,21.18
2022-10-26T09:00:53.544Z,21.04
2022-10-26T09:01:55.927Z,21.62
2022-10-26T09:02:58.162Z,21.85
2022-10-26T09:05:18.624Z,23.48
2022-10-26T09:06:43.755Z,24.18
2022-10-26T09:08:05.792Z,25.14
2022-10-26T09:09:21.150Z,26.12
2022-10-26T09:10:40.567Z,26.18
2022-10-26T09:11:48.672Z,26.65
2022-10-26T09:13:09.990Z,27.11
2022-10-26T09:14:32.683Z,27.55
2022-10-26T09:15:37.512Z,27.97
2022-10-26T09:16:56.699Z,29.01
2022-10-26T09:18:28.024Z,29.08
2022-10-26T09:19:42.827Z,29.53
2022-10-26T09:20:49.666Z,29.04
2022-10-26T09:22:07.017Z,28.28
2022-10-26T09:23:15.332Z,29.45
2022-10-26T09:24:31.071Z,29.66
2022-10-26T09:25:40.238Z,29.48
2022-10-26T09:26:42.339Z,29.97
2022-10-26T09:27:57.446Z,30.78
2022-10-26T09:29:06.927Z,31.03
2022-10-26T09:30:18.996Z,30.59
2022-10-26T09:31:22.258Z,30.38
2022-10-26T09:32:51.413Z,30.76
2022-10-26T09:33:55.103Z,31.01
2022-10-26T09:35:02.886Z,31.32
2022-10-26T09:36:26.808Z,30.78
2022-10-26T09:37:34.179Z,31.70
2022-10-26T09:38:49.263Z,32.10
2022-10-26T09:40:17.048Z,31.74
2022-10-26T09:41:33.186Z,31.39
2022-10-26T09:43:02.665Z,31.69
2022-10-26T09:44:31.166Z,31.47
2022-10-26T09:45:41.908Z,31.56
2022-10-26T09:46:57.014Z,31.83
2022-10-26T09:48:11.972Z,32.27
2022-10-26T09:49:18.310Z,32.26
2022-10-26T09:50:32.165Z,32.03
2022-10-26T09:51:38.011Z,32.04
2022-10-26T09:52:40.146Z,31.86
2022-10-26T09:53:42.286Z,31.41
2022-10-26T09:54:45.001Z,30.80
2022-10-26T09:55:49.878Z,31.53
2022-10-26T09:56:56.879Z,31.93
2022-10-26T09:58:03.427Z,32.56
2022-10-26T09:59:06.980Z,32.54
2022-10-26T10:00:20.736Z,32.31
2022-10-26T10:01:36.789Z,31.54
2022-10-26T10:02:44.444Z,31.48
2022-10-26T10:03:46.670Z,31.02
2022-10-26T10:04:48.763Z,30.99
2022-10-26T10:05:52.534Z,30.39
2022-10-26T10:07:01.276Z,30.90
2022-10-26T10:08:11.319Z,29.36
2022-10-26T10:09:16.430Z,29.14
2022-10-26T10:10:21.548Z,28.89
2022-10-26T10:11:55.186Z,28.81
2022-10-26T10:12:57.411Z,28.27
2022-10-26T10:14:08.402Z,28.22
2022-10-26T10:15:19.867Z,27.69
2022-10-26T10:16:25.122Z,26.68
2022-10-26T10:17:27.656Z,26.51
2022-10-26T10:18:30.242Z,26.19
2022-10-26T10:19:35.738Z,25.90
2022-10-26T10:20:38.033Z,25.86
2022-10-26T10:21:45.397Z,25.43
2022-10-26T10:23:24.555Z,25.16
2022-10-26T10:24:26.710Z,24.71
2022-10-26T10:25:39.875Z,25.03
2022-10-26T10:27:02.313Z,25.08
2022-10-26T10:28:22.350Z,25.00
2022-10-26T10:29:43.677Z,25.04
2022-10-26T10:30:54.997Z,24.65
2022-10-26T10:32:02.726Z,24.76
2022-10-26T10:33:12.156Z,24.95
2022-10-26T10:34:17.703Z,24.90
2022-10-26T10:35:25.444Z,24.79
2022-10-26T10:36:30.355Z,24.66
2022-10-26T10:37:35.922Z,24.83
2022-10-26T10:38:41.567Z,24.83
2022-10-26T10:39:43.718Z,24.45
2022-10-26T10:41:06.433Z,24.75
2022-10-26T10:42:21.881Z,24.60
2022-10-26T10:43:25.021Z,24.57
2022-10-26T10:44:30.089Z,24.41
2022-10-26T10:45:34.827Z,24.45
2022-10-26T10:46:37.811Z,23.86
2022-10-26T10:48:51.935Z,24.30
2022-10-26T10:49:58.837Z,24.06
2022-10-26T10:51:12.358Z,24.37
2022-10-26T10:52:29.739Z,24.93
2022-10-26T10:53:37.433Z,25.17
2022-10-26T10:54:39.890Z,25.08
2022-10-26T10:55:52.498Z,25.55
2022-10-26T10:57:55.581Z,26.16
2022-10-26T10:59:27.085Z,26.15
2022-10-26T11:00:29.640Z,26.09
2022-10-26T11:01:38.855Z,26.64
2022-10-26T11:03:26.209Z,27.22
2022-10-26T11:04:46.881Z,27.31
2022-10-26T11:05:48.993Z,27.32
2022-10-26T11:06:52.591Z,27.10
2022-10-26T11:07:58.029Z,26.84
2022-10-26T11:09:07.997Z,27.18
2022-10-26T11:10:16.028Z,27.61
2022-10-26T11:11:45.461Z,27.86
2022-10-26T11:12:56.492Z,27.73
2022-10-26T11:14:28.791Z,27.00
2022-10-26T11:15:35.572Z,27.19
2022-10-26T11:16:37.692Z,26.85
2022-10-26T11:17:56.134Z,27.49
2022-10-26T11:19:12.607Z,27.63
2022-10-26T11:20:21.154Z,28.01
2022-10-26T11:21:29.471Z,28.42
2022-10-26T11:22:39.745Z,29.20
2022-10-26T11:23:52.917Z,29.63
2022-10-26T11:25:03.179Z,30.35
2022-10-26T11:26:43.607Z,31.53
2022-10-26T11:28:39.360Z,32.08
2022-10-26T11:29:48.386Z,32.32
2022-10-26T11:30:58.907Z,32.82
2022-10-26T11:32:08.634Z,33.05
2022-10-26T11:33:15.518Z,33.53
2022-10-26T11:34:40.864Z,34.31
2022-10-26T11:35:56.537Z,34.66
2022-10-26T11:37:34.583Z,34.58
2022-10-26T11:38:58.688Z,34.64
2022-10-26T11:40:20.676Z,35.03
2022-10-26T11:41:33.674Z,34.82
2022-10-26T11:42:46.338Z,34.55
2022-10-26T11:43:51.249Z,35.28
2022-10-26T11:45:32.351Z,35.16
2022-10-26T11:46:49.774Z,35.86
2022-10-26T11:47:58.023Z,35.72
2022-10-26T11:49:17.497Z,36.32
2022-10-26T11:50:27.531Z,35.71
2022-10-26T11:51:39.162Z,36.06
2022-10-26T11:52:48.198Z,36.16
2022-10-26T11:53:52.091Z,35.72
2022-10-26T11:54:56.969Z,36.02
2022-10-26T11:55:59.741Z,34.82
2022-10-26T11:57:04.805Z,35.16
2022-10-26T11:58:10.498Z,35.29
2022-10-26T11:59:22.629Z,34.61
2022-10-26T12:00:26.981Z,33.62
2022-10-26T12:01:30.546Z,33.00
2022-10-26T12:02:39.984Z,33.34
2022-10-26T12:03:47.566Z,33.17
2022-10-26T12:04:57.861Z,33.31
2022-10-26T12:06:00.047Z,33.16
2022-10-26T12:07:06.956Z,32.58
2022-10-26T12:08:51.680Z,32.51
2022-10-26T12:09:55.635Z,31.94
2022-10-26T12:11:09.446Z,31.12
2022-10-26T12:12:37.182Z,30.45
2022-10-26T12:13:46.589Z,29.55
2022-10-26T12:15:09.891Z,28.38
2022-10-26T12:16:43.182Z,28.24
2022-10-26T12:17:52.875Z,27.65
2022-10-26T12:19:01.765Z,27.58
2022-10-26T12:20:06.686Z,27.88
2022-10-26T12:21:10.776Z,27.46
2022-10-26T12:22:16.279Z,27.70
2022-10-26T12:23:28.137Z,27.59
2022-10-26T12:24:45.475Z,27.87
2022-10-26T12:25:47.608Z,27.63
2022-10-26T12:27:33.264Z,27.14
2022-10-26T12:28:35.428Z,26.64
2022-10-26T12:29:49.112Z,26.84
2022-10-26T12:30:51.311Z,26.44
2022-10-26T12:31:53.545Z,26.57
2022-10-26T12:33:29.150Z,27.07
2022-10-26T12:34:31.293Z,27.33
2022-10-26T12:35:42.024Z,27.08
2022-10-26T12:37:09.950Z,27.57
2022-10-26T12:38:23.935Z,29.03
2022-10-26T12:39:30.492Z,29.23
2022-10-26T12:40:32.550Z,29.49
2022-10-26T12:41:39.080Z,30.06
2022-10-26T12:42:41.802Z,29.91
2022-10-26T12:44:47.223Z,30.00
2022-10-26T12:46:10.907Z,30.21
2022-10-26T12:47:28.168Z,30.34
2022-10-26T12:48:48.320Z,29.99
2022-10-26T12:49:59.598Z,29.48
2022-10-26T12:51:18.867Z,29.30
2022-10-26T12:52:26.146Z,29.48
2022-10-26T12:53:28.486Z,28.00
2022-10-26T12:54:41.805Z,28.79
2022-10-26T12:55:47.571Z,29.66
2022-10-26T12:56:49.650Z,28.72
2022-10-26T12:58:12.591Z,29.62
2022-10-26T12:59:23.994Z,29.27
2022-10-26T13:00:27.945Z,29.27
2022-10-26T13:01:45.406Z,29.60
2022-10-26T13:02:56.394Z,29.40
2022-10-26T13:04:07.638Z,30.10
2022-10-26T13:05:34.445Z,30.08
2022-10-26T13:07:10.375Z,30.53
2022-10-26T13:08:13.985Z,30.50
2022-10-26T13:09:27.585Z,31.30
2022-10-26T13:10:29.779Z,30.93
2022-10-26T13:11:35.735Z,31.28
2022-10-26T13:12:59.642Z,31.93
2022-10-26T13:14:08.715Z,31.07
2022-10-26T13:15:24.698Z,30.72
2022-10-26T13:16:28.603Z,29.53
2022-10-26T13:18:45.094Z,29.92
2022-10-26T13:19:49.379Z,29.77
2022-10-26T13:21:06.899Z,29.98
2022-10-26T13:22:16.033Z,29.00
2022-10-26T13:23:27.219Z,29.40
2022-10-26T13:24:32.522Z,29.02
2022-10-26T13:25:34.809Z,29.31
2022-10-26T13:27:05.687Z,29.27
2022-10-26T13:28:32.621Z,29.41
2022-10-26T13:30:03.785Z,29.79
2022-10-26T13:31:32.779Z,29.89
2022-10-26T13:32:48.301Z,29.82
2022-10-26T13:33:54.503Z,29.66
2022-10-26T13:35:00.059Z,29.03
2022-10-26T13:36:06.382Z,28.55
2022-10-26T13:37:23.407Z,28.34
2022-10-26T13:38:32.096Z,28.43
2022-10-26T13:39:41.911Z,28.60
2022-10-26T13:40:44.646Z,28.90
2022-10-26T13:41:51.197Z,28.44
2022-10-26T13:42:58.794Z,28.81
2022-10-26T13:44:06.290Z,28.83
2022-10-26T13:45:13.815Z,29.01
2022-10-26T13:46:26.247Z,28.63
2022-10-26T13:47:34.280Z,28.50
2022-10-26T13:48:39.499Z,27.51
2022-10-26T13:49:45.943Z,27.45
2022-10-26T13:50:52.560Z,27.67
2022-10-26T13:51:56.119Z,27.82
2022-10-26T13:53:08.145Z,27.55
2022-10-26T13:54:23.287Z,27.38
2022-10-26T13:55:37.831Z,27.39
2022-10-26T13:57:12.281Z,28.19
2022-10-26T13:58:33.614Z,27.73
2022-10-26T13:59:41.625Z,28.02
2022-10-26T14:01:16.103Z,28.35
2022-10-26T14:02:19.937Z,28.03
2022-10-26T14:03:22.153Z,27.79
2022-10-26T14:04:28.366Z,27.94
2022-10-26T14:05:31.571Z,27.50
2022-10-26T14:06:40.272Z,27.94
2022-10-26T14:08:51.724Z,27.51
2022-10-26T14:09:56.460Z,28.02
2022-10-26T14:10:59.841Z,28.11
2022-10-26T14:12:02.490Z,27.93
2022-10-26T14:13:15.895Z,27.85
2022-10-26T14:14:22.609Z,27.87
2022-10-26T14:15:30.851Z,28.25
2022-10-26T14:16:34.498Z,26.96
2022-10-26T14:17:36.727Z,27.44
2022-10-26T14:18:39.288Z,27.49
2022-10-26T14:19:41.617Z,27.89
2022-10-26T14:20:50.219Z,28.66
2022-10-26T14:21:53.252Z,28.25
2022-10-26T14:22:55.455Z,28.37
2022-10-26T14:23:59.575Z,28.32
2022-10-26T14:25:01.784Z,27.40
2022-10-26T14:26:35.688Z,27.56
2022-10-26T14:27:40.966Z,27.97
2022-10-26T14:28:50.421Z,28.14
2022-10-26T14:30:17.129Z,27.96
2022-10-26T14:31:26.662Z,28.31
2022-10-26T14:32:32.073Z,28.13
2022-10-26T14:33:34.201Z,27.91
2022-10-26T14:34:36.333Z,27.79
2022-10-26T14:35:42.034Z,27.37
2022-10-26T14:36:55.438Z,27.61
2022-10-26T14:38:03.242Z,27.63
2022-10-26T14:39:13.094Z,27.52
2022-10-26T14:40:27.588Z,27.62
2022-10-26T14:41:31.008Z,27.35
2022-10-26T14:42:38.440Z,27.67
2022-10-26T14:43:40.621Z,27.12
2022-10-26T14:44:42.885Z,26.89
2022-10-26T14:45:50.508Z,27.18
2022-10-26T14:46:52.756Z,26.79
2022-10-26T14:47:55.358Z,26.53
2022-10-26T14:48:59.837Z,26.26
2022-10-26T14:50:03.076Z,26.23
2022-10-26T14:51:16.246Z,26.38